Time;durP1;ratioP1;P1;durP2;ratioP2;P2;SDS_P1;SDS_P2;PMS_P1;PMS_P2;Temp;Humidity;BMP_temperature;BMP_pressure;BME280_temperature;BME280_humidity;BME280_pressure;Samples;Min_cycle;Max_cycle;Signal;HPM_P1;HPM_P2
2022/03/26 00:00:53;;;;;;;40.63;26.38;;;;;;;11.01;45.44;100852.38;5088888;28;20412;-75
2022/03/26 00:03:20;;;;;;;45.10;24.98;;;;;;;11.03;45.46;100849.63;5087930;28;20052;-71
2022/03/26 00:05:47;;;;;;;44.72;28.90;;;;;;;10.93;45.72;100840.59;5085715;28;20079;-72
2022/03/26 00:08:14;;;;;;;42.55;25.88;;;;;;;10.93;45.74;100843.25;5086596;28;20052;-72
2022/03/26 00:10:44;;;;;;;44.65;26.40;;;;;;;10.94;45.74;100843.16;5067474;28;20094;-72
2022/03/26 00:13:11;;;;;;;41.20;23.08;;;;;;;10.94;45.57;100843.16;5087091;28;20064;-71
2022/03/26 00:15:39;;;;;;;38.45;23.73;;;;;;;10.93;45.56;100848.53;5086370;28;20047;-72
2022/03/26 00:18:09;;;;;;;51.20;28.30;;;;;;;10.84;45.85;100837.63;5086848;28;20109;-71
2022/03/26 00:20:36;;;;;;;32.72;22.65;;;;;;;10.86;45.68;100833.09;5086699;28;20048;-73
2022/03/26 00:23:04;;;;;;;39.50;25.63;;;;;;;10.81;45.95;100835.16;5087242;28;20518;-70
2022/03/26 00:25:31;;;;;;;44.53;26.65;;;;;;;10.76;46.29;100829.31;5086540;28;20240;-71
2022/03/26 00:28:00;;;;;;;42.30;26.13;;;;;;;10.77;46.17;100836.31;5087715;28;20072;-72
2022/03/26 00:30:27;;;;;;;37.80;24.92;;;;;;;10.74;46.08;100828.59;5087342;28;20046;-71
2022/03/26 00:32:54;;;;;;;34.35;21.77;;;;;;;10.71;46.09;100826.13;5086388;28;20040;-70
2022/03/26 00:35:21;;;;;;;41.95;25.17;;;;;;;10.65;46.30;100827.38;5086127;28;20040;-72
2022/03/26 00:37:48;;;;;;;43.35;28.20;;;;;;;10.62;46.41;100818.78;5084981;28;20044;-70
2022/03/26 00:40:15;;;;;;;38.67;21.88;;;;;;;10.59;46.26;100813.69;5085970;28;20498;-71
2022/03/26 00:42:42;;;;;;;43.60;21.45;;;;;;;10.55;46.12;100817.47;5085918;28;20044;-74
2022/03/26 00:45:11;;;;;;;46.10;24.48;;;;;;;10.45;46.35;100812.78;5087332;28;20046;-73
2022/03/26 00:47:38;;;;;;;45.00;26.00;;;;;;;10.44;46.46;100811.09;5085790;28;20127;-76
2022/03/26 00:50:05;;;;;;;40.80;22.20;;;;;;;10.38;46.43;100811.47;5086583;28;20097;-70
2022/03/26 00:52:32;;;;;;;38.55;22.40;;;;;;;10.35;46.43;100808.19;5086770;28;20052;-71
2022/03/26 00:54:59;;;;;;;40.15;21.80;;;;;;;10.31;46.32;100802.25;5086218;28;20048;-72
2022/03/26 00:57:26;;;;;;;44.05;23.65;;;;;;;10.26;46.23;100804.28;5087244;28;20044;-70
2022/03/26 00:59:53;;;;;;;42.20;23.77;;;;;;;10.18;46.30;100799.50;5087461;28;20226;-71
2022/03/26 01:02:21;;;;;;;42.97;22.30;;;;;;;10.16;46.32;100800.53;5086620;28;20052;-72
2022/03/26 01:04:48;;;;;;;40.60;21.52;;;;;;;10.08;46.47;100798.34;5086267;28;20044;-70
2022/03/26 01:07:15;;;;;;;41.28;25.35;;;;;;;10.01;46.72;100797.03;5073898;28;20052;-72
2022/03/26 01:09:42;;;;;;;41.42;24.75;;;;;;;9.95;46.91;100799.09;5066285;28;20054;-71
2022/03/26 01:12:11;;;;;;;51.92;27.20;;;;;;;9.92;47.31;100796.69;5066612;28;20056;-72
2022/03/26 01:14:38;;;;;;;46.35;27.25;;;;;;;9.90;47.15;100795.06;5065401;28;20049;-71
2022/03/26 01:17:05;;;;;;;49.80;26.45;;;;;;;9.82;47.27;100794.69;5067892;28;20131;-71
2022/03/26 01:19:34;;;;;;;40.08;23.08;;;;;;;9.79;47.37;100789.59;5065944;28;20652;-71
2022/03/26 01:22:01;;;;;;;46.70;25.75;;;;;;;9.75;47.22;100787.13;5065138;28;20075;-69
2022/03/26 01:24:28;;;;;;;47.15;25.30;;;;;;;9.69;47.43;100787.50;5064801;28;20048;-71
2022/03/26 01:26:55;;;;;;;42.22;23.08;;;;;;;9.65;47.29;100787.78;5064962;28;20424;-71
2022/03/26 01:29:22;;;;;;;48.10;23.90;;;;;;;9.61;47.29;100781.84;5064169;28;20045;-72
2022/03/26 01:31:49;;;;;;;43.25;24.13;;;;;;;9.56;47.46;100778.63;5063661;28;20075;-72
2022/03/26 01:34:16;;;;;;;36.90;23.67;;;;;;;9.53;47.43;100784.94;5063374;28;20143;-73
2022/03/26 01:36:45;;;;;;;40.75;22.52;;;;;;;9.52;47.51;100785.03;5062003;28;20045;-70
2022/03/26 01:39:12;;;;;;;45.85;24.80;;;;;;;9.48;47.46;100783.53;5063683;28;20041;-70
2022/03/26 01:41:39;;;;;;;41.28;24.70;;;;;;;9.47;47.61;100785.31;5065284;28;20049;-71
2022/03/26 01:44:07;;;;;;;44.35;24.05;;;;;;;9.45;47.55;100768.72;5063148;28;20464;-74
2022/03/26 01:46:48;;;;;;;42.70;25.60;;;;;;;9.45;47.99;100778.41;5064004;28;20049;-70
2022/03/26 01:49:15;;;;;;;40.05;22.92;;;;;;;9.42;47.88;100775.97;5063868;28;20106;-70
2022/03/26 01:51:44;;;;;;;41.22;24.77;;;;;;;9.40;48.06;100776.06;5064644;28;20141;-71
2022/03/26 01:54:12;;;;;;;34.65;23.42;;;;;;;9.38;48.06;100772.66;5064256;28;20059;-70
2022/03/26 01:56:40;;;;;;;46.25;26.25;;;;;;;9.38;48.13;100770.88;5063825;28;20527;-70
2022/03/26 01:59:08;;;;;;;45.95;25.15;;;;;;;9.38;47.80;100768.25;5063076;28;20053;-70
2022/03/26 02:01:37;;;;;;;45.13;22.60;;;;;;;9.37;48.12;100770.97;5063449;28;20632;-72
2022/03/26 02:04:05;;;;;;;50.72;26.17;;;;;;;9.35;48.24;100776.34;5063662;28;20535;-72
2022/03/26 02:06:32;;;;;;;47.33;24.92;;;;;;;9.34;48.34;100764.06;5061847;28;20042;-71
2022/03/26 02:09:02;;;;;;;40.45;22.30;;;;;;;9.36;48.35;100770.13;5064004;28;20127;-73
2022/03/26 02:11:32;;;;;;;44.40;26.60;;;;;;;9.37;48.58;100765.69;5021287;28;20049;-71
2022/03/26 02:13:59;;;;;;;42.10;25.80;;;;;;;9.36;48.46;100758.72;5020547;28;20072;-74
2022/03/26 02:16:27;;;;;;;50.85;25.20;;;;;;;9.36;48.83;100764.00;5020649;28;20049;-69
2022/03/26 02:18:55;;;;;;;41.63;22.88;;;;;;;9.38;48.76;100747.16;5022382;28;20460;-70
2022/03/26 02:21:24;;;;;;;40.70;23.35;;;;;;;9.40;48.58;100751.47;5024881;28;20125;-70
2022/03/26 02:23:52;;;;;;;45.83;25.08;;;;;;;9.41;48.71;100763.72;5025170;28;20741;-70
2022/03/26 02:26:21;;;;;;;43.08;25.52;;;;;;;9.43;49.32;100753.94;5023737;28;20645;-69
2022/03/26 02:28:50;;;;;;;34.95;22.77;;;;;;;9.47;49.01;100755.44;5013878;28;20055;-70
2022/03/26 02:31:18;;;;;;;41.25;22.23;;;;;;;9.48;49.00;100757.16;5069619;28;20056;-71
2022/03/26 02:33:45;;;;;;;43.40;23.10;;;;;;;9.50;49.01;100753.47;5077869;28;20128;-72
2022/03/26 02:36:13;;;;;;;37.30;22.27;;;;;;;9.55;48.79;100746.13;5076215;28;20239;-71
2022/03/26 02:38:41;;;;;;;38.35;23.58;;;;;;;9.61;48.84;100736.16;5077959;28;20502;-71
2022/03/26 02:41:09;;;;;;;36.85;21.55;;;;;;;9.64;48.73;100741.25;5077598;28;20052;-71
2022/03/26 02:43:37;;;;;;;39.53;24.42;;;;;;;9.65;48.85;100733.25;5078489;28;20112;-71
2022/03/26 02:46:04;;;;;;;33.97;19.08;;;;;;;9.70;48.72;100725.88;5079829;28;20469;-71
2022/03/26 02:48:33;;;;;;;38.45;23.27;;;;;;;9.75;49.01;100723.81;5068941;28;20110;-71
2022/03/26 02:51:00;;;;;;;39.67;21.30;;;;;;;9.80;48.70;100720.06;5067096;28;20128;-69
2022/03/26 02:53:27;;;;;;;41.47;21.23;;;;;;;9.82;48.70;100713.75;5068241;28;20041;-70
2022/03/26 02:55:55;;;;;;;40.30;21.10;;;;;;;9.86;48.63;100709.13;5067173;28;20505;-69
2022/03/26 02:58:22;;;;;;;37.10;20.33;;;;;;;9.89;48.36;100706.31;5067250;28;20044;-70
2022/03/26 03:00:50;;;;;;;41.80;19.38;;;;;;;9.89;48.39;100693.94;5067632;28;20080;-69
2022/03/26 03:03:18;;;;;;;40.88;23.65;;;;;;;9.90;48.52;100697.44;5067122;28;20048;-70
2022/03/26 03:05:46;;;;;;;36.72;19.27;;;;;;;9.90;48.69;100700.06;5065638;28;20051;-71
2022/03/26 03:08:14;;;;;;;33.13;19.33;;;;;;;9.91;48.56;100702.63;5068248;28;20048;-70
2022/03/26 03:10:42;;;;;;;35.80;20.63;;;;;;;9.94;48.44;100696.31;5066802;28;20049;-71
2022/03/26 03:13:10;;;;;;;32.55;19.20;;;;;;;9.94;48.56;100689.25;5065967;28;20056;-70
2022/03/26 03:15:38;;;;;;;29.90;18.40;;;;;;;9.95;48.47;100688.28;5067814;28;20044;-71
2022/03/26 03:18:05;;;;;;;33.03;18.58;;;;;;;9.92;48.36;100683.22;5066560;28;20421;-72
2022/03/26 03:20:32;;;;;;;27.75;17.92;;;;;;;9.86;48.36;100686.22;5066224;28;20055;-70
2022/03/26 03:22:59;;;;;;;30.30;17.95;;;;;;;9.83;48.47;100682.94;5066184;28;20048;-72
2022/03/26 03:25:29;;;;;;;35.67;17.50;;;;;;;9.81;48.41;100679.53;5066182;28;20060;-73
2022/03/26 03:27:57;;;;;;;33.67;17.35;;;;;;;9.77;48.41;100663.91;5066576;28;20477;-73
2022/03/26 03:30:26;;;;;;;35.45;18.17;;;;;;;9.70;48.58;100670.50;5065878;28;20052;-73
2022/03/26 03:32:53;;;;;;;36.60;18.83;;;;;;;9.67;48.63;100665.44;5066876;28;20090;-72
2022/03/26 03:35:22;;;;;;;37.83;21.60;;;;;;;9.68;48.58;100648.66;5067398;28;20847;-71
2022/03/26 03:37:50;;;;;;;35.42;19.08;;;;;;;9.67;48.65;100652.25;5064903;28;20476;-70
2022/03/26 03:40:17;;;;;;;30.38;18.65;;;;;;;9.72;48.78;100644.91;5065496;28;20444;-70
2022/03/26 03:42:44;;;;;;;34.85;18.38;;;;;;;9.75;48.66;100649.13;5067058;28;20454;-70
2022/03/26 03:45:12;;;;;;;32.63;17.58;;;;;;;9.76;48.58;100646.38;5066806;28;20512;-69
2022/03/26 03:47:41;;;;;;;33.72;20.02;;;;;;;9.79;48.81;100652.41;5065830;28;20052;-70
2022/03/26 03:50:09;;;;;;;39.05;24.60;;;;;;;9.79;48.97;100655.06;5066441;28;20055;-71
2022/03/26 03:52:36;;;;;;;38.85;20.00;;;;;;;9.88;48.82;100655.31;5065736;28;20040;-72
2022/03/26 03:55:03;;;;;;;36.03;21.52;;;;;;;9.92;48.85;100653.31;5064649;28;20055;-71
2022/03/26 03:57:30;;;;;;;39.53;23.67;;;;;;;9.95;48.90;100661.88;5066705;28;20051;-72
2022/03/26 03:59:57;;;;;;;30.30;17.13;;;;;;;10.09;48.53;100653.09;5065714;28;20059;-72
2022/03/26 04:02:24;;;;;;;39.53;23.02;;;;;;;10.12;48.46;100641.53;5065468;28;20048;-70
2022/03/26 04:04:52;;;;;;;42.08;20.08;;;;;;;10.16;48.48;100647.44;5066029;28;20048;-72
2022/03/26 04:07:19;;;;;;;35.53;19.92;;;;;;;10.13;48.38;100654.59;5064038;28;20131;-75
2022/03/26 04:09:46;;;;;;;37.10;19.92;;;;;;;10.16;48.30;100647.44;5065716;28;20052;-73
2022/03/26 04:12:14;;;;;;;45.13;21.95;;;;;;;10.19;48.28;100641.94;5066231;28;20051;-73
2022/03/26 04:14:43;;;;;;;37.03;22.45;;;;;;;10.26;48.25;100649.41;5065241;28;20040;-71
2022/03/26 04:17:11;;;;;;;40.58;22.42;;;;;;;10.36;48.15;100641.75;5065272;28;20048;-71
2022/03/26 04:19:38;;;;;;;38.05;22.10;;;;;;;10.41;48.14;100636.16;5065988;28;20041;-72
2022/03/26 04:22:08;;;;;;;34.10;20.17;;;;;;;10.47;47.89;100639.22;5064502;28;20507;-70
2022/03/26 04:24:36;;;;;;;43.55;26.23;;;;;;;10.47;48.01;100631.31;5064438;28;20123;-70
2022/03/26 04:27:04;;;;;;;38.95;20.70;;;;;;;10.54;47.84;100630.94;5066017;28;20514;-70
2022/03/26 04:29:31;;;;;;;40.15;22.27;;;;;;;10.58;47.86;100633.25;5065232;28;20545;-70
2022/03/26 04:31:58;;;;;;;41.65;24.52;;;;;;;10.59;47.77;100624.38;5065494;28;20503;-69
2022/03/26 04:34:25;;;;;;;43.00;21.60;;;;;;;10.65;47.48;100628.41;5065883;28;20131;-70
2022/03/26 04:36:52;;;;;;;38.20;22.33;;;;;;;10.68;47.45;100617.66;5062274;28;20136;-71
2022/03/26 04:39:21;;;;;;;43.60;26.08;;;;;;;10.69;47.50;100620.16;5064536;28;20139;-71
2022/03/26 04:41:48;;;;;;;52.38;30.02;;;;;;;10.66;47.74;100620.38;5064667;28;20058;-73
2022/03/26 04:44:15;;;;;;;51.15;26.60;;;;;;;10.73;47.39;100620.78;5063466;28;20051;-70
2022/03/26 04:46:42;;;;;;;41.53;25.27;;;;;;;10.73;47.56;100625.25;5064357;28;20051;-71
2022/03/26 04:49:09;;;;;;;45.15;22.33;;;;;;;10.74;47.56;100614.56;5064715;28;20049;-71
2022/03/26 04:51:36;;;;;;;41.50;25.00;;;;;;;10.69;47.50;100625.44;5063399;28;20419;-70
2022/03/26 04:54:03;;;;;;;50.10;31.63;;;;;;;10.66;47.86;100616.88;5064808;28;20522;-70
2022/03/26 04:56:32;;;;;;;41.35;25.30;;;;;;;10.66;47.99;100628.31;5064354;28;20456;-69
2022/03/26 04:58:59;;;;;;;42.92;24.92;;;;;;;10.66;47.80;100619.50;5063549;28;20048;-70
2022/03/26 05:01:26;;;;;;;37.17;21.00;;;;;;;10.66;47.89;100620.38;5065062;28;20457;-70
2022/03/26 05:03:53;;;;;;;53.75;30.95;;;;;;;10.65;47.95;100623.13;5064787;28;20143;-72
2022/03/26 05:06:20;;;;;;;49.20;27.13;;;;;;;10.60;48.32;100617.28;5061293;28;20048;-70
2022/03/26 05:08:48;;;;;;;43.53;25.65;;;;;;;10.62;48.23;100615.41;5064821;28;20480;-70
2022/03/26 05:11:15;;;;;;;45.13;26.90;;;;;;;10.61;48.25;100626.94;5063080;28;20686;-71
2022/03/26 05:13:44;;;;;;;39.70;21.92;;;;;;;10.64;48.11;100621.41;5062537;28;20070;-72
2022/03/26 05:16:11;;;;;;;49.03;27.23;;;;;;;10.64;48.04;100613.50;5064896;28;20066;-72
2022/03/26 05:18:39;;;;;;;43.45;23.58;;;;;;;10.63;48.01;100603.88;5063017;28;20055;-74
2022/03/26 05:21:07;;;;;;;47.17;26.85;;;;;;;10.61;48.06;100605.78;5062673;28;20048;-72
2022/03/26 05:23:35;;;;;;;43.85;24.42;;;;;;;10.64;47.96;100595.88;5065112;28;20048;-72
2022/03/26 05:26:02;;;;;;;43.88;26.40;;;;;;;10.66;48.07;100601.03;5063707;28;20049;-72
2022/03/26 05:28:29;;;;;;;45.47;24.88;;;;;;;10.70;47.99;100605.16;5062393;28;20055;-71
2022/03/26 05:30:57;;;;;;;42.67;23.60;;;;;;;10.78;47.87;100602.00;5063348;28;20044;-72
2022/03/26 05:33:24;;;;;;;48.83;27.20;;;;;;;10.82;48.23;100598.19;5063537;28;20045;-72
2022/03/26 05:35:52;;;;;;;43.92;26.65;;;;;;;10.87;48.20;100591.63;5062168;28;20063;-71
2022/03/26 05:38:19;;;;;;;46.50;32.83;;;;;;;10.83;48.81;100590.16;5064042;28;20045;-70
2022/03/26 05:40:46;;;;;;;51.38;31.95;;;;;;;10.85;48.80;100603.28;5062055;28;20503;-70
2022/03/26 05:43:13;;;;;;;47.03;27.55;;;;;;;10.86;48.58;100597.91;5063463;28;20432;-70
2022/03/26 05:45:40;;;;;;;48.60;28.17;;;;;;;10.86;49.01;100605.81;5063451;28;20547;-70
2022/03/26 05:48:08;;;;;;;51.67;28.92;;;;;;;10.87;48.96;100598.72;5062848;28;20044;-70
2022/03/26 05:50:36;;;;;;;48.55;26.80;;;;;;;10.87;48.99;100591.63;5063093;28;20048;-70
2022/03/26 05:53:03;;;;;;;46.65;28.05;;;;;;;10.93;48.75;100592.19;5064589;28;20045;-71
2022/03/26 05:55:30;;;;;;;43.45;26.73;;;;;;;10.97;48.65;100585.75;5068756;28;20058;-72
2022/03/26 05:57:57;;;;;;;57.33;33.63;;;;;;;10.97;48.84;100591.88;5068474;28;20049;-73
2022/03/26 06:00:24;;;;;;;46.17;27.77;;;;;;;11.05;48.68;100583.41;5067443;28;20173;-73
2022/03/26 06:02:51;;;;;;;48.67;26.90;;;;;;;11.10;48.59;100573.38;5065471;28;20186;-70
2022/03/26 06:05:20;;;;;;;49.17;33.40;;;;;;;11.11;48.70;100580.34;5079327;28;20044;-70
2022/03/26 06:07:47;;;;;;;46.42;27.02;;;;;;;11.18;48.72;100573.69;5084726;28;20101;-70
2022/03/26 06:10:14;;;;;;;43.08;26.55;;;;;;;11.28;48.34;100573.88;5085182;28;20101;-73
2022/03/26 06:12:41;;;;;;;46.53;33.13;;;;;;;11.26;48.64;100573.97;5085622;28;20083;-68
2022/03/26 06:15:10;;;;;;;50.28;27.90;;;;;;;11.33;48.43;100571.75;5086895;28;20043;-71
2022/03/26 06:17:37;;;;;;;37.50;23.73;;;;;;;11.43;48.22;100572.81;5085349;28;20063;-72
2022/03/26 06:20:04;;;;;;;50.90;31.85;;;;;;;11.44;48.46;100568.34;5086942;28;20055;-69
2022/03/26 06:22:33;;;;;;;51.45;32.22;;;;;;;11.46;48.44;100567.28;5087032;28;20077;-73
2022/03/26 06:25:00;;;;;;;46.33;27.27;;;;;;;11.55;48.23;100570.22;5085213;28;20048;-71
2022/03/26 06:27:27;;;;;;;47.30;29.88;;;;;;;11.60;48.03;100571.59;5086205;28;20048;-72
2022/03/26 06:29:54;;;;;;;48.38;33.95;;;;;;;11.57;48.33;100569.16;5087026;28;20509;-71
2022/03/26 06:32:21;;;;;;;46.85;27.73;;;;;;;11.63;48.44;100573.16;5086944;28;20123;-71
2022/03/26 06:34:49;;;;;;;53.22;31.92;;;;;;;11.71;48.23;100556.75;5087692;28;20404;-71
2022/03/26 06:37:15;;;;;;;42.40;26.45;;;;;;;11.87;48.00;100559.97;5088815;28;20408;-77
2022/03/26 06:39:45;;;;;;;36.85;22.40;;;;;;;12.04;47.77;100550.81;5086430;28;20044;-71
2022/03/26 06:42:12;;;;;;;42.67;26.33;;;;;;;12.12;47.49;100544.94;5087260;28;20650;-70
2022/03/26 06:44:39;;;;;;;38.10;23.60;;;;;;;12.18;47.53;100560.38;5090483;28;20407;-73
2022/03/26 06:47:06;;;;;;;38.97;23.55;;;;;;;12.32;47.14;100554.91;5090560;28;20044;-70
2022/03/26 06:49:34;;;;;;;45.03;22.13;;;;;;;12.41;47.01;100554.22;5088503;28;20052;-77
2022/03/26 06:52:01;;;;;;;45.92;26.17;;;;;;;12.54;46.74;100542.69;5090640;28;20179;-75
2022/03/26 06:54:28;;;;;;;35.42;21.38;;;;;;;12.74;46.53;100551.75;5087399;28;20547;-71
2022/03/26 06:56:57;;;;;;;35.33;24.63;;;;;;;12.87;46.35;100543.69;5086043;28;20630;-72
2022/03/26 06:59:25;;;;;;;28.15;18.92;;;;;;;12.96;46.20;100549.16;5084445;28;20048;-72
2022/03/26 07:01:52;;;;;;;34.85;19.10;;;;;;;13.10;45.97;100542.75;5085996;28;20044;-72
2022/03/26 07:04:19;;;;;;;31.02;19.10;;;;;;;13.08;45.76;100542.03;5086292;28;20066;-74
2022/03/26 07:06:47;;;;;;;34.85;18.38;;;;;;;13.16;45.74;100534.31;5082395;28;20156;-74
2022/03/26 07:09:14;;;;;;;38.20;21.58;;;;;;;13.32;45.45;100527.81;5088024;28;20119;-79
2022/03/26 07:11:41;;;;;;;31.95;20.35;;;;;;;13.64;44.86;100548.28;5087062;28;20048;-74
2022/03/26 07:14:10;;;;;;;32.05;21.23;;;;;;;13.70;44.50;100540.69;5071255;28;20135;-74
2022/03/26 07:16:37;;;;;;;29.27;19.75;;;;;;;13.71;44.59;100542.34;5075347;28;20571;-76
2022/03/26 07:19:04;;;;;;;26.80;21.42;;;;;;;13.75;44.41;100527.00;5073520;28;20180;-77
2022/03/26 07:21:32;;;;;;;40.58;19.67;;;;;;;13.69;44.63;100546.94;5075816;28;20054;-79
2022/03/26 07:23:59;;;;;;;34.47;17.15;;;;;;;13.79;44.53;100531.09;5077944;28;20041;-75
2022/03/26 07:26:26;;;;;;;33.28;18.77;;;;;;;13.82;44.59;100530.03;5080431;28;20197;-79
2022/03/26 07:28:56;;;;;;;23.33;15.60;;;;;;;14.06;44.16;100527.16;5075364;28;20593;-77
2022/03/26 07:31:25;;;;;;;33.72;15.60;;;;;;;14.00;44.21;100536.47;5079561;28;20044;-77
2022/03/26 07:33:53;;;;;;;23.38;16.20;;;;;;;14.18;43.59;100515.50;5080482;28;20044;-86
2022/03/26 07:36:20;;;;;;;39.17;18.63;;;;;;;14.24;43.20;100514.16;5076845;28;20075;-77
2022/03/26 07:38:47;;;;;;;33.00;18.50;;;;;;;14.06;43.42;100511.22;5078411;28;20173;-78
2022/03/26 07:41:14;;;;;;;34.83;17.70;;;;;;;14.11;43.19;100509.03;5078117;28;20139;-76
2022/03/26 07:43:41;;;;;;;23.70;13.68;;;;;;;14.38;42.91;100511.16;5073494;28;20183;-80
2022/03/26 07:46:12;;;;;;;38.15;19.30;;;;;;;14.36;42.70;100496.34;5080703;28;20273;-79
2022/03/26 07:48:41;;;;;;;30.88;16.35;;;;;;;14.33;42.92;100508.91;5082652;28;20219;-80
2022/03/26 07:51:09;;;;;;;27.10;20.35;;;;;;;14.43;42.40;100493.03;5078147;28;20655;-79
2022/03/26 07:53:36;;;;;;;26.10;16.75;;;;;;;14.35;42.60;100506.13;5081046;28;20049;-78
2022/03/26 07:56:04;;;;;;;23.95;15.35;;;;;;;14.40;42.75;100505.72;5076827;28;20041;-78
2022/03/26 07:58:31;;;;;;;23.13;16.70;;;;;;;14.43;42.45;100500.16;5048640;28;20094;-81
2022/03/26 08:01:00;;;;;;;25.17;17.85;;;;;;;14.31;42.64;100496.72;5070282;28;20044;-82
2022/03/26 08:03:28;;;;;;;30.02;16.67;;;;;;;14.33;42.81;100487.66;5069445;28;20687;-81
2022/03/26 08:05:56;;;;;;;38.33;21.13;;;;;;;14.20;42.66;100483.50;5071903;28;20112;-81
2022/03/26 08:08:26;;;;;;;26.60;17.42;;;;;;;14.15;42.92;100491.84;5070735;28;20516;-81
2022/03/26 08:10:53;;;;;;;27.65;15.60;;;;;;;14.13;42.95;100496.44;5072016;28;20052;-82
2022/03/26 08:13:23;;;;;;;39.72;17.50;;;;;;;14.25;42.80;100507.88;5077196;28;20079;-83
2022/03/26 08:16:07;;;;;;;31.90;20.35;;;;;;;14.26;42.61;100494.47;5083922;28;20047;-80
2022/03/26 08:21:10;;;;;;;34.05;17.02;;;;;;;14.36;42.51;100509.63;5093119;22;20512;-79
2022/03/26 08:23:37;;;;;;;22.92;12.25;;;;;;;14.43;42.42;100529.41;5090065;28;20048;-80
2022/03/26 08:28:54;;;;;;;35.85;20.60;;;;;;;14.61;41.80;100487.97;5089681;28;20065;-84
2022/03/26 08:31:23;;;;;;;26.30;16.45;;;;;;;14.42;42.71;100501.13;5092547;28;20115;-82
2022/03/26 08:33:51;;;;;;;28.45;18.77;;;;;;;14.51;42.42;100498.53;5088986;28;20055;-80
2022/03/26 08:36:23;;;;;;;24.98;11.88;;;;;;;14.74;42.41;100495.75;5087273;28;20131;-82
2022/03/26 08:38:52;;;;;;;30.73;15.73;;;;;;;14.96;41.69;100505.34;5088213;28;20058;-78
2022/03/26 08:41:23;;;;;;;36.83;17.35;;;;;;;14.95;41.61;100501.03;5088518;28;20181;-79
2022/03/26 08:43:52;;;;;;;25.55;16.35;;;;;;;14.82;41.74;100503.06;5073092;28;20063;-79
2022/03/26 08:46:20;;;;;;;20.48;17.45;;;;;;;14.71;41.89;100501.31;5095771;28;20087;-80
2022/03/26 08:48:53;;;;;;;26.30;16.50;;;;;;;14.85;41.96;100502.78;5096146;28;20052;-79
2022/03/26 08:51:22;;;;;;;25.85;14.82;;;;;;;15.15;41.32;100498.44;5093020;28;20108;-80
2022/03/26 08:53:49;;;;;;;41.50;16.23;;;;;;;15.14;40.71;100473.63;5073211;28;20470;-81
2022/03/26 08:56:17;;;;;;;40.22;18.40;;;;;;;15.28;40.30;100483.06;5084740;28;20090;-83
2022/03/26 08:58:48;;;;;;;24.63;15.07;;;;;;;15.29;40.77;100487.44;5088113;28;20511;-80
2022/03/26 09:01:16;;;;;;;22.67;12.73;;;;;;;15.41;39.97;100486.34;5096869;28;20075;-76
2022/03/26 09:03:43;;;;;;;26.90;13.60;;;;;;;15.66;39.74;100497.44;5095357;28;20199;-76
2022/03/26 09:06:15;;;;;;;20.92;15.02;;;;;;;15.99;38.73;100487.38;5091619;28;20048;-80
2022/03/26 09:08:45;;;;;;;22.92;14.80;;;;;;;16.16;38.52;100473.34;5079300;28;20119;-79
2022/03/26 09:11:13;;;;;;;24.23;13.40;;;;;;;16.43;37.83;100496.59;5081822;28;20104;-79
2022/03/26 09:13:40;;;;;;;34.13;15.13;;;;;;;16.30;37.62;100498.75;5104688;28;20044;-83
2022/03/26 09:16:08;;;;;;;34.05;17.25;;;;;;;16.23;37.60;100482.47;5120186;28;20058;-78
2022/03/26 09:18:35;;;;;;;31.35;14.70;;;;;;;16.06;37.54;100488.50;5088502;28;20040;-81
2022/03/26 09:21:02;;;;;;;22.85;15.52;;;;;;;16.18;37.35;100475.88;5099157;28;20044;-79
2022/03/26 09:23:29;;;;;;;30.98;17.23;;;;;;;16.13;37.54;100472.81;5095690;28;20067;-80
2022/03/26 09:26:00;;;;;;;26.85;14.20;;;;;;;16.08;37.83;100485.69;5078624;28;20471;-79
2022/03/26 09:28:27;;;;;;;20.85;13.10;;;;;;;16.19;37.78;100481.06;5056900;28;20088;-72
2022/03/26 09:30:54;;;;;;;26.27;13.48;;;;;;;16.46;37.56;100500.81;5078847;28;20044;-77
2022/03/26 09:33:21;;;;;;;32.50;14.55;;;;;;;16.60;37.39;100496.84;5073223;28;20045;-74
2022/03/26 09:35:48;;;;;;;22.30;14.73;;;;;;;16.67;37.14;100486.44;5063720;28;20048;-78
2022/03/26 09:38:15;;;;;;;23.90;12.07;;;;;;;16.95;36.93;100485.53;5058858;28;20045;-75
2022/03/26 09:40:43;;;;;;;19.92;11.40;;;;;;;17.10;36.88;100495.72;5063506;28;20045;-77
2022/03/26 09:43:14;;;;;;;25.83;13.10;;;;;;;17.12;36.00;100480.41;5065509;28;20624;-77
2022/03/26 09:45:42;;;;;;;22.73;10.52;;;;;;;17.11;35.77;100510.75;5062781;28;20858;-76
2022/03/26 09:48:09;;;;;;;41.55;11.48;;;;;;;17.12;35.36;100480.41;5062061;28;20048;-77
2022/03/26 09:50:41;;;;;;;28.25;12.27;;;;;;;17.03;35.29;100484.78;5062465;28;20139;-74
2022/03/26 09:53:13;;;;;;;39.92;14.32;;;;;;;17.05;34.91;100479.31;5060675;28;20052;-74
2022/03/26 09:55:40;;;;;;;32.42;12.77;;;;;;;16.75;35.68;100467.91;5012096;28;20072;-77
2022/03/26 09:58:08;;;;;;;25.15;10.02;;;;;;;16.71;36.00;100482.50;5060755;28;20048;-74
2022/03/26 10:00:36;;;;;;;21.35;12.93;;;;;;;16.74;35.75;100467.03;5061901;28;20189;-74
2022/03/26 10:03:04;;;;;;;27.05;15.57;;;;;;;16.41;36.13;100460.41;5067487;28;20079;-81
2022/03/26 10:05:36;;;;;;;29.65;15.02;;;;;;;16.32;36.59;100461.28;5065397;28;20037;-80
2022/03/26 10:08:23;;;;;;;27.70;13.45;;;;;;;16.26;37.14;100462.69;5040818;28;20067;-76
2022/03/26 10:10:52;;;;;;;24.50;14.40;;;;;;;16.19;37.13;100475.75;5064665;28;20635;-77
2022/03/26 10:13:35;;;;;;;32.25;17.13;;;;;;;16.21;37.59;100465.78;5065191;28;20080;-79
2022/03/26 10:16:08;;;;;;;33.38;14.48;;;;;;;16.04;37.67;100479.81;5059863;28;20132;-77
2022/03/26 10:18:36;;;;;;;36.13;14.85;;;;;;;16.12;37.67;100473.81;5061027;28;20041;-80
2022/03/26 10:21:06;;;;;;;27.30;16.25;;;;;;;15.96;37.86;100467.22;5081131;28;20044;-77
2022/03/26 10:23:33;;;;;;;21.08;13.57;;;;;;;16.06;37.95;100475.19;5077996;28;20036;-78
2022/03/26 10:26:09;;;;;;;25.33;15.23;;;;;;;16.11;37.96;100459.63;5080681;28;20044;-78
2022/03/26 10:28:36;;;;;;;25.15;11.73;;;;;;;16.27;37.66;100474.19;5083153;28;20079;-76
2022/03/26 10:34:07;;;;;;;22.60;13.00;;;;;;;16.04;37.64;100459.38;5085287;28;20047;-78
2022/03/26 10:36:43;;;;;;;30.95;13.75;;;;;;;16.01;38.07;100464.13;5076400;28;20051;-77
2022/03/26 10:39:17;;;;;;;23.25;10.20;;;;;;;16.17;37.96;100474.19;5074248;28;20055;-76
2022/03/26 10:44:28;;;;;;;28.10;13.75;;;;;;;16.22;38.08;100472.81;5086135;28;20411;-78
2022/03/26 10:46:59;;;;;;;26.77;11.82;;;;;;;16.16;38.19;100473.34;5094517;28;20052;-75
2022/03/26 10:49:28;;;;;;;24.30;9.90;;;;;;;16.29;38.23;100474.88;5096593;28;20127;-74
2022/03/26 10:51:56;;;;;;;19.27;12.07;;;;;;;16.24;38.71;100472.63;5073574;28;20048;-75
2022/03/26 10:54:30;;;;;;;22.80;12.95;;;;;;;16.09;39.66;100469.56;5055432;28;20127;-75
2022/03/26 10:56:59;;;;;;;29.52;14.07;;;;;;;15.91;40.68;100468.63;5063749;28;20060;-77
2022/03/26 10:59:26;;;;;;;23.92;15.15;;;;;;;15.66;41.78;100476.13;5064867;28;20053;-76
2022/03/26 11:01:54;;;;;;;30.15;15.23;;;;;;;15.64;42.08;100481.59;5064193;28;20116;-78
2022/03/26 11:04:22;;;;;;;34.75;14.85;;;;;;;15.70;42.49;100492.69;5066519;28;20079;-75
2022/03/26 11:06:50;;;;;;;26.90;15.43;;;;;;;15.67;42.71;100488.47;5065363;28;20052;-74
2022/03/26 11:09:17;;;;;;;26.77;14.75;;;;;;;15.67;42.99;100493.81;5069919;28;20064;-77
2022/03/26 11:11:46;;;;;;;26.60;15.75;;;;;;;15.56;43.36;100492.09;5065407;28;20075;-79
2022/03/26 11:14:22;;;;;;;21.70;13.13;;;;;;;15.63;43.45;100501.22;5059850;28;20067;-78
2022/03/26 11:17:06;;;;;;;36.70;17.08;;;;;;;15.57;44.35;100498.25;5068370;28;20590;-78
2022/03/26 11:19:55;;;;;;;24.67;17.40;;;;;;;15.45;45.87;100506.38;5064986;28;20135;-80
2022/03/26 11:22:37;;;;;;;24.38;16.52;;;;;;;15.16;48.76;100521.41;5049450;28;20052;-87
2022/03/26 11:25:34;;;;;;;32.10;20.42;;;;;;;14.60;53.79;100530.66;5058876;28;20076;-81
2022/03/26 11:28:37;;;;;;;27.33;16.80;;;;;;;14.34;55.62;100539.81;5046103;28;20510;-79